createdAt,value
2022-11-13T00:00:15.317Z,52.04
2022-11-13T00:03:00.791Z,52.53
2022-11-13T00:05:45.853Z,52.65
2022-11-13T00:08:31.740Z,53.72
2022-11-13T00:11:19.312Z,51.87
2022-11-13T00:14:05.026Z,51.85
2022-11-13T00:16:50.343Z,52.62
2022-11-13T00:19:35.794Z,52.95
2022-11-13T00:22:21.239Z,52.29
2022-11-13T00:25:06.732Z,51.80
2022-11-13T00:27:51.999Z,50.62
2022-11-13T00:30:37.426Z,49.94
2022-11-13T00:33:45.267Z,49.40
2022-11-13T00:36:28.414Z,49.27
2022-11-13T00:39:13.360Z,48.92
2022-11-13T00:41:58.768Z,48.81
2022-11-13T00:44:44.142Z,48.85
2022-11-13T00:47:30.085Z,48.75
2022-11-13T00:50:15.353Z,48.62
2022-11-13T00:53:01.091Z,48.37
2022-11-13T00:55:46.405Z,48.28
2022-11-13T00:58:31.935Z,47.98
2022-11-13T01:01:19.443Z,47.80
2022-11-13T01:04:04.712Z,47.66
2022-11-13T01:06:49.900Z,47.38
2022-11-13T01:09:35.265Z,47.41
2022-11-13T01:12:20.316Z,47.33
2022-11-13T01:15:05.975Z,47.83
2022-11-13T01:17:51.749Z,47.82
2022-11-13T01:20:37.530Z,47.91
2022-11-13T01:23:22.646Z,47.69
2022-11-13T01:26:11.686Z,48.26
2022-11-13T01:28:59.392Z,47.88
2022-11-13T01:31:44.840Z,47.75
2022-11-13T01:34:30.189Z,47.71
2022-11-13T01:37:15.604Z,47.58
2022-11-13T01:40:00.810Z,47.76
2022-11-13T01:42:46.477Z,47.32
2022-11-13T01:45:59.381Z,47.36
2022-11-13T01:49:14.001Z,47.28
2022-11-13T01:52:06.949Z,47.35
2022-11-13T01:55:00.350Z,47.26
2022-11-13T01:57:45.809Z,47.60
2022-11-13T02:00:31.215Z,48.04
2022-11-13T02:03:16.989Z,48.40
2022-11-13T02:06:02.639Z,48.17
2022-11-13T02:08:49.514Z,47.50
2022-11-13T02:11:34.755Z,47.74
2022-11-13T02:14:23.151Z,46.97
2022-11-13T02:17:11.159Z,47.52
2022-11-13T02:20:00.628Z,47.73
2022-11-13T02:23:05.731Z,47.60
2022-11-13T02:25:53.393Z,47.91
2022-11-13T02:28:39.042Z,47.93
2022-11-13T02:31:24.057Z,48.03
2022-11-13T02:34:10.018Z,48.30
2022-11-13T02:36:55.858Z,48.37
2022-11-13T02:39:41.460Z,48.01
2022-11-13T02:42:26.763Z,48.25
2022-11-13T02:45:12.344Z,49.05
2022-11-13T02:48:00.487Z,49.24
2022-11-13T02:50:46.109Z,48.99
2022-11-13T02:53:31.374Z,49.21
2022-11-13T02:56:17.166Z,48.74
2022-11-13T02:59:02.391Z,49.46
2022-11-13T03:01:48.280Z,50.40
2022-11-13T03:04:57.218Z,51.05
2022-11-13T03:07:38.328Z,51.72
2022-11-13T03:10:23.640Z,52.84
2022-11-13T03:13:09.214Z,52.47
2022-11-13T03:15:54.306Z,53.45
2022-11-13T03:18:40.431Z,53.23
2022-11-13T03:21:25.344Z,53.28
2022-11-13T03:24:10.605Z,52.14
2022-11-13T03:26:55.960Z,51.42
2022-11-13T03:29:41.416Z,51.03
2022-11-13T03:32:26.622Z,50.84
2022-11-13T03:35:11.539Z,51.93
2022-11-13T03:37:57.089Z,53.10
2022-11-13T03:40:43.075Z,53.38
2022-11-13T03:43:28.425Z,52.44
2022-11-13T03:46:13.814Z,52.49
2022-11-13T03:48:58.919Z,52.17
2022-11-13T03:51:44.218Z,52.07
2022-11-13T03:54:29.489Z,51.92
2022-11-13T03:57:15.557Z,52.42
2022-11-13T04:00:00.562Z,52.29
2022-11-13T04:02:46.160Z,51.23
2022-11-13T04:05:31.516Z,50.90
2022-11-13T04:08:17.401Z,50.51
2022-11-13T04:11:10.541Z,50.35
2022-11-13T04:13:56.348Z,50.01
2022-11-13T04:16:41.473Z,49.88
2022-11-13T04:19:26.822Z,50.01
2022-11-13T04:22:12.482Z,49.94
2022-11-13T04:24:58.083Z,50.71
2022-11-13T04:27:43.790Z,50.41
2022-11-13T04:30:29.121Z,50.80
2022-11-13T04:33:14.306Z,50.07
2022-11-13T04:35:59.433Z,49.79
2022-11-13T04:38:44.744Z,49.94
2022-11-13T04:41:52.602Z,50.36
2022-11-13T04:44:40.846Z,50.54
2022-11-13T04:47:26.249Z,50.78
2022-11-13T04:50:12.590Z,51.62
2022-11-13T04:52:58.218Z,51.67
2022-11-13T04:55:45.071Z,52.17
2022-11-13T04:58:30.778Z,53.01
2022-11-13T05:01:16.288Z,53.02
2022-11-13T05:04:01.718Z,52.81
2022-11-13T05:06:46.847Z,52.80
2022-11-13T05:09:32.169Z,52.96
2022-11-13T05:12:17.409Z,52.67
2022-11-13T05:15:03.284Z,53.03
2022-11-13T05:17:49.328Z,52.67
2022-11-13T05:20:35.082Z,53.29
2022-11-13T05:23:20.401Z,53.21
2022-11-13T05:26:11.741Z,53.11
2022-11-13T05:28:59.113Z,52.77
2022-11-13T05:31:44.632Z,53.06
2022-11-13T05:34:29.489Z,52.62
2022-11-13T05:37:14.886Z,52.83
2022-11-13T05:39:59.865Z,52.79
2022-11-13T05:42:45.166Z,53.38
2022-11-13T05:45:30.634Z,52.18
2022-11-13T05:48:15.797Z,51.85
2022-11-13T05:51:06.962Z,52.53
2022-11-13T05:53:53.514Z,52.72
2022-11-13T05:56:40.769Z,52.32
2022-11-13T05:59:26.234Z,51.83
2022-11-13T06:02:11.371Z,52.52
2022-11-13T06:04:56.756Z,52.10
2022-11-13T06:07:41.923Z,48.94
2022-11-13T06:10:27.454Z,45.99
2022-11-13T06:13:13.156Z,49.64
2022-11-13T06:16:03.047Z,50.09
2022-11-13T06:18:49.494Z,50.46
2022-11-13T06:21:37.942Z,50.41
2022-11-13T06:24:23.160Z,50.17
2022-11-13T06:27:08.545Z,50.32
2022-11-13T06:29:53.817Z,50.41
2022-11-13T06:32:39.573Z,50.53
2022-11-13T06:35:24.760Z,50.79
2022-11-13T06:38:10.208Z,50.54
2022-11-13T06:40:56.925Z,50.07
2022-11-13T06:43:42.698Z,50.43
2022-11-13T06:46:29.936Z,50.03
2022-11-13T06:49:15.492Z,50.89
2022-11-13T06:52:00.902Z,51.34
2022-11-13T06:54:46.362Z,51.55
2022-11-13T06:57:31.497Z,52.10
2022-11-13T07:00:17.578Z,52.08
2022-11-13T07:03:02.987Z,52.79
2022-11-13T07:05:48.239Z,54.24
2022-11-13T07:08:34.328Z,54.26
2022-11-13T07:11:22.601Z,54.41
2022-11-13T07:14:12.075Z,53.73
2022-11-13T07:17:09.224Z,52.79
2022-11-13T07:19:55.026Z,52.58
2022-11-13T07:22:40.220Z,51.64
2022-11-13T07:25:27.011Z,51.05
2022-11-13T07:28:12.320Z,50.82
2022-11-13T07:30:59.095Z,50.45
2022-11-13T07:33:44.569Z,50.40
2022-11-13T07:36:29.814Z,50.51
2022-11-13T07:39:15.077Z,50.67
2022-11-13T07:42:00.378Z,51.28
2022-11-13T07:44:54.615Z,50.84
2022-11-13T07:47:41.296Z,49.14
2022-11-13T07:50:32.001Z,48.65
2022-11-13T07:53:18.535Z,47.61
2022-11-13T07:56:04.246Z,45.38
2022-11-13T07:58:49.490Z,43.74
2022-11-13T08:01:34.433Z,40.32
2022-11-13T08:04:19.670Z,36.88
2022-11-13T08:07:04.932Z,38.20
2022-11-13T08:09:50.279Z,40.05
2022-11-13T08:12:35.892Z,41.12
2022-11-13T08:15:21.137Z,39.90
2022-11-13T08:18:07.214Z,38.45
2022-11-13T08:20:52.285Z,38.64
2022-11-13T08:23:37.612Z,37.27
2022-11-13T08:26:22.904Z,37.07
2022-11-13T08:29:08.116Z,36.17
2022-11-13T08:31:53.674Z,35.71
2022-11-13T08:34:38.592Z,35.65
2022-11-13T08:37:23.988Z,36.01
2022-11-13T08:40:09.723Z,36.88
2022-11-13T08:43:04.645Z,36.66
2022-11-13T08:45:49.871Z,36.14
2022-11-13T08:48:35.557Z,34.62
2022-11-13T08:51:21.017Z,34.93
2022-11-13T08:54:06.846Z,34.50
2022-11-13T08:56:56.235Z,33.90
2022-11-13T08:59:42.862Z,34.39
2022-11-13T09:02:28.235Z,33.36
2022-11-13T09:05:14.106Z,33.49
2022-11-13T09:08:01.158Z,33.66
2022-11-13T09:10:46.288Z,33.60
2022-11-13T09:13:32.928Z,34.29
2022-11-13T09:16:18.192Z,35.07
2022-11-13T09:19:04.088Z,35.84
2022-11-13T09:21:49.031Z,36.36
2022-11-13T09:24:34.916Z,37.10
2022-11-13T09:27:20.191Z,36.59
2022-11-13T09:30:05.762Z,37.32
2022-11-13T09:32:59.039Z,38.39
2022-11-13T09:35:44.723Z,39.22
2022-11-13T09:38:31.982Z,41.22
2022-11-13T09:41:21.604Z,42.12
2022-11-13T09:44:15.876Z,41.53
2022-11-13T09:47:20.467Z,41.37
2022-11-13T09:50:19.312Z,40.92
2022-11-13T09:53:05.005Z,41.21
2022-11-13T09:56:33.260Z,40.92
2022-11-13T09:59:45.326Z,41.08
2022-11-13T10:02:49.089Z,40.50
2022-11-13T10:05:36.965Z,41.66
2022-11-13T10:08:30.590Z,38.57
2022-11-13T10:11:36.671Z,35.58
2022-11-13T10:14:29.081Z,40.00
2022-11-13T10:17:21.486Z,40.13
2022-11-13T10:20:19.226Z,40.98
2022-11-13T10:23:14.938Z,40.76
2022-11-13T10:26:14.838Z,41.94
2022-11-13T10:29:20.249Z,42.36
2022-11-13T10:32:26.779Z,44.09
2022-11-13T10:35:31.870Z,41.90
2022-11-13T10:38:49.964Z,43.15
2022-11-13T10:41:48.347Z,46.34
2022-11-13T10:44:38.153Z,46.62
2022-11-13T10:47:56.943Z,46.88
2022-11-13T10:50:32.531Z,48.65
2022-11-13T10:53:19.783Z,49.33
2022-11-13T10:56:14.488Z,43.11
2022-11-13T10:59:10.421Z,43.07
2022-11-13T11:01:55.801Z,41.26
2022-11-13T11:04:40.889Z,38.72
2022-11-13T11:07:26.546Z,40.06
2022-11-13T11:10:34.018Z,37.93
2022-11-13T11:13:23.879Z,39.53
2022-11-13T11:16:14.628Z,41.01
2022-11-13T11:19:09.246Z,41.23
2022-11-13T11:22:07.147Z,39.47
2022-11-13T11:25:02.494Z,39.84
2022-11-13T11:28:14.582Z,41.41
2022-11-13T11:31:32.530Z,49.59
2022-11-13T11:35:08.084Z,41.29
2022-11-13T11:38:02.906Z,42.54
2022-11-13T11:40:55.671Z,40.46
2022-11-13T11:43:45.761Z,42.53
2022-11-13T11:46:31.010Z,44.93
2022-11-13T11:49:16.761Z,42.69
2022-11-13T11:52:34.177Z,46.14
2022-11-13T11:55:50.804Z,38.76
2022-11-13T11:58:38.525Z,42.71
2022-11-13T12:01:39.855Z,38.17
2022-11-13T12:04:52.576Z,40.83
2022-11-13T12:07:57.795Z,41.73
2022-11-13T12:10:57.265Z,37.75
2022-11-13T12:14:04.011Z,41.50
2022-11-13T12:17:16.708Z,45.72
2022-11-13T12:20:26.138Z,47.09
2022-11-13T12:23:19.923Z,46.52
2022-11-13T12:26:26.177Z,46.56
2022-11-13T12:29:38.827Z,47.93
2022-11-13T12:32:46.591Z,47.70
2022-11-13T12:35:32.106Z,47.72
2022-11-13T12:38:57.054Z,46.43
2022-11-13T12:42:14.011Z,47.10
2022-11-13T12:45:50.825Z,49.01
2022-11-13T12:48:38.641Z,34.09
2022-11-13T12:51:23.916Z,30.93
2022-11-13T12:54:10.546Z,38.03
2022-11-13T12:57:13.900Z,53.08
2022-11-13T13:00:20.290Z,57.37
2022-11-13T13:03:43.682Z,59.89
2022-11-13T13:06:45.833Z,61.97
2022-11-13T13:09:37.137Z,64.19
2022-11-13T13:12:49.462Z,63.91
2022-11-13T13:15:39.809Z,65.96
2022-11-13T13:18:31.649Z,67.38
2022-11-13T13:21:19.250Z,67.72
2022-11-13T13:24:24.779Z,68.74
2022-11-13T13:27:25.279Z,68.97
2022-11-13T13:30:20.326Z,70.10
2022-11-13T13:33:21.050Z,69.18
2022-11-13T13:36:09.113Z,70.56
2022-11-13T13:39:11.405Z,71.47
2022-11-13T13:42:04.376Z,70.57
2022-11-13T13:45:23.832Z,70.51
2022-11-13T13:48:13.642Z,71.61
2022-11-13T13:51:00.864Z,71.57
2022-11-13T13:53:48.430Z,73.06
2022-11-13T13:56:39.715Z,73.52
2022-11-13T13:59:33.191Z,72.09
2022-11-13T14:02:22.932Z,72.52
2022-11-13T14:05:23.550Z,72.77
2022-11-13T14:08:26.328Z,73.16
2022-11-13T14:11:30.774Z,72.19
2022-11-13T14:14:19.229Z,72.57
2022-11-13T14:17:04.226Z,72.51
2022-11-13T14:19:52.269Z,73.36
2022-11-13T14:22:38.681Z,73.03
2022-11-13T14:25:28.555Z,73.26
2022-11-13T14:28:19.481Z,76.00
2022-11-13T14:31:09.783Z,75.82
2022-11-13T14:33:55.746Z,75.00
2022-11-13T14:36:41.057Z,75.95
2022-11-13T14:39:32.145Z,76.25
2022-11-13T14:42:36.855Z,76.90
2022-11-13T14:45:25.094Z,77.27
2022-11-13T14:48:22.963Z,77.71
2022-11-13T14:51:23.426Z,76.83
2022-11-13T14:54:53.080Z,76.93
2022-11-13T14:57:47.659Z,78.30
2022-11-13T15:00:37.871Z,76.51
2022-11-13T15:03:23.490Z,77.59
2022-11-13T15:06:15.130Z,76.22
2022-11-13T15:09:01.719Z,77.25
2022-11-13T15:11:46.929Z,77.04
2022-11-13T15:14:32.994Z,77.91
2022-11-13T15:17:21.175Z,78.06
2022-11-13T15:23:16.739Z,78.67
2022-11-13T15:32:21.849Z,78.58
2022-11-13T15:35:13.684Z,80.09
2022-11-13T15:37:59.048Z,78.90
2022-11-13T15:40:44.287Z,78.08
2022-11-13T15:43:29.801Z,78.38
2022-11-13T15:46:18.331Z,78.30
2022-11-13T15:49:04.277Z,76.85
2022-11-13T15:51:50.187Z,77.79
2022-11-13T15:54:38.273Z,78.37
2022-11-13T15:57:29.209Z,78.59
2022-11-13T16:00:16.305Z,78.71
2022-11-13T16:03:04.302Z,77.57
2022-11-13T16:05:50.731Z,76.68
2022-11-13T16:08:36.569Z,76.85
2022-11-13T16:11:21.889Z,78.06
2022-11-13T16:14:07.860Z,78.24
2022-11-13T16:16:53.491Z,77.54
2022-11-13T16:19:42.047Z,76.55
2022-11-13T16:22:27.483Z,77.77
2022-11-13T16:25:15.566Z,79.34
2022-11-13T16:28:00.686Z,79.12
2022-11-13T16:30:47.135Z,79.34
2022-11-13T16:33:32.369Z,79.05
2022-11-13T16:36:20.200Z,79.16
2022-11-13T16:39:06.355Z,78.83
2022-11-13T16:41:51.687Z,78.95
2022-11-13T16:44:37.035Z,77.53
2022-11-13T16:47:24.859Z,78.07
2022-11-13T16:50:14.029Z,77.76
2022-11-13T16:52:59.429Z,80.12
2022-11-13T16:55:45.104Z,79.90
2022-11-13T16:58:30.446Z,80.71
2022-11-13T17:01:18.355Z,80.07
2022-11-13T17:04:05.565Z,80.62
2022-11-13T17:06:55.340Z,80.08
2022-11-13T17:09:43.449Z,80.00
2022-11-13T17:12:28.480Z,80.11
2022-11-13T17:15:14.317Z,79.06
2022-11-13T17:17:59.908Z,79.56
2022-11-13T17:20:45.471Z,82.16
2022-11-13T17:23:31.086Z,80.82
2022-11-13T17:26:16.498Z,79.76
2022-11-13T17:29:05.125Z,79.37
2022-11-13T17:31:50.966Z,79.54
2022-11-13T17:34:36.633Z,79.70
2022-11-13T17:37:25.084Z,80.69
2022-11-13T17:40:11.599Z,80.53
2022-11-13T17:42:56.962Z,79.97
2022-11-13T17:45:42.371Z,80.37
2022-11-13T17:48:31.190Z,80.21
2022-11-13T17:51:16.154Z,79.65
2022-11-13T17:54:01.701Z,78.21
2022-11-13T17:56:47.210Z,79.11
2022-11-13T17:59:32.421Z,79.08
2022-11-13T18:02:18.646Z,79.46
2022-11-13T18:05:04.608Z,79.52
2022-11-13T18:07:51.202Z,80.16
2022-11-13T18:10:38.317Z,79.54
2022-11-13T18:13:24.890Z,79.48
2022-11-13T18:16:14.342Z,79.62
2022-11-13T18:19:00.903Z,78.61
2022-11-13T18:21:46.580Z,79.65
2022-11-13T18:24:32.289Z,79.50
2022-11-13T18:27:17.393Z,80.11
2022-11-13T18:30:03.116Z,79.90
2022-11-13T18:32:48.629Z,78.55
2022-11-13T18:35:33.695Z,77.86
2022-11-13T18:38:18.890Z,76.94
2022-11-13T18:41:07.902Z,76.23
2022-11-13T18:43:53.128Z,76.33
2022-11-13T18:46:38.232Z,76.08
2022-11-13T18:49:24.495Z,76.70
2022-11-13T18:52:09.950Z,76.25
2022-11-13T18:54:55.835Z,76.38
2022-11-13T18:57:41.605Z,76.42
2022-11-13T19:00:26.664Z,77.00
2022-11-13T19:03:11.813Z,77.46
2022-11-13T19:05:57.235Z,78.07
2022-11-13T19:08:43.688Z,77.84
2022-11-13T19:11:30.219Z,77.53
2022-11-13T19:14:17.351Z,76.60
2022-11-13T19:17:02.781Z,76.61
2022-11-13T19:19:48.635Z,75.06
2022-11-13T19:22:34.570Z,74.04
2022-11-13T19:25:20.045Z,75.25
2022-11-13T19:28:05.424Z,74.55
2022-11-13T19:30:54.706Z,74.87
2022-11-13T19:33:40.715Z,74.95
2022-11-13T19:36:28.476Z,74.10
2022-11-13T19:39:13.718Z,73.41
2022-11-13T19:41:58.994Z,72.93
2022-11-13T19:44:44.405Z,73.84
2022-11-13T19:47:29.930Z,74.27
2022-11-13T19:50:15.624Z,72.52
2022-11-13T19:53:01.627Z,72.33
2022-11-13T19:55:56.069Z,72.17
2022-11-13T19:58:44.089Z,71.33
2022-11-13T20:01:31.761Z,71.91
2022-11-13T20:04:18.456Z,72.17
2022-11-13T20:07:03.671Z,73.20
2022-11-13T20:09:49.260Z,73.27
2022-11-13T20:12:34.560Z,72.25
2022-11-13T20:15:20.049Z,71.59
2022-11-13T20:18:05.503Z,70.97
2022-11-13T20:20:54.709Z,71.74
2022-11-13T20:23:40.366Z,72.89
2022-11-13T20:26:26.094Z,72.75
2022-11-13T20:29:11.856Z,72.27
2022-11-13T20:31:56.995Z,72.66
2022-11-13T20:34:42.878Z,73.28
2022-11-13T20:37:28.969Z,73.86
2022-11-13T20:40:14.763Z,72.89
2022-11-13T20:42:59.693Z,71.46
2022-11-13T20:45:45.053Z,70.84
2022-11-13T20:48:30.478Z,71.03
2022-11-13T20:51:19.961Z,71.25
2022-11-13T20:54:06.905Z,69.80
2022-11-13T20:56:52.095Z,70.21
2022-11-13T20:59:37.705Z,70.28
2022-11-13T21:02:23.433Z,70.55
2022-11-13T21:05:09.300Z,71.45
2022-11-13T21:07:54.902Z,70.47
2022-11-13T21:10:40.247Z,70.52
2022-11-13T21:13:26.026Z,69.94
2022-11-13T21:16:11.795Z,69.52
2022-11-13T21:18:59.226Z,70.61
2022-11-13T21:21:44.766Z,71.31
2022-11-13T21:24:29.846Z,71.75
2022-11-13T21:27:15.073Z,71.49
2022-11-13T21:30:00.992Z,71.88
2022-11-13T21:32:46.151Z,72.28
2022-11-13T21:35:31.278Z,72.42
2022-11-13T21:38:17.554Z,71.03
2022-11-13T21:41:24.202Z,71.90
2022-11-13T21:44:10.637Z,71.93
2022-11-13T21:46:56.248Z,72.93
2022-11-13T21:49:41.746Z,74.17
2022-11-13T21:52:27.159Z,73.30
2022-11-13T21:55:12.297Z,73.06
2022-11-13T21:57:57.867Z,72.81
2022-11-13T22:00:44.567Z,72.52
2022-11-13T22:03:29.898Z,72.88
2022-11-13T22:06:22.599Z,73.11
2022-11-13T22:09:15.236Z,74.06
2022-11-13T22:12:00.662Z,75.33
2022-11-13T22:14:45.946Z,74.52
2022-11-13T22:17:31.181Z,74.99
2022-11-13T22:20:16.634Z,75.18
2022-11-13T22:23:05.482Z,74.85
2022-11-13T22:25:52.449Z,73.78
2022-11-13T22:28:43.341Z,73.74
2022-11-13T22:31:30.358Z,74.48
2022-11-13T22:34:16.181Z,76.20
2022-11-13T22:37:01.109Z,75.46
2022-11-13T22:39:46.351Z,74.89
2022-11-13T22:42:31.708Z,75.43
2022-11-13T22:45:23.733Z,74.96
2022-11-13T22:48:10.808Z,74.19
2022-11-13T22:50:56.797Z,74.61
2022-11-13T22:53:43.515Z,74.66
2022-11-13T22:56:30.686Z,74.69
2022-11-13T22:59:15.704Z,74.34
2022-11-13T23:02:00.993Z,74.39
2022-11-13T23:04:46.015Z,75.19
2022-11-13T23:07:31.816Z,76.73
2022-11-13T23:10:17.952Z,76.88
2022-11-13T23:13:02.849Z,77.35
2022-11-13T23:15:48.325Z,79.00
2022-11-13T23:18:33.794Z,79.70
2022-11-13T23:21:19.088Z,79.08
2022-11-13T23:26:50.750Z,79.40
2022-11-13T23:29:35.732Z,78.40
2022-11-13T23:32:21.209Z,78.01
2022-11-13T23:35:06.666Z,78.13
2022-11-13T23:37:52.129Z,78.54
2022-11-13T23:40:37.394Z,78.32
2022-11-13T23:43:36.405Z,79.44
2022-11-13T23:46:30.059Z,79.16
2022-11-13T23:49:15.268Z,78.59
2022-11-13T23:52:00.630Z,80.37
2022-11-13T23:54:46.250Z,79.93
2022-11-13T23:57:31.515Z,78.97
